Dades meteomassalio
Diari Summary for Agost 11, 2017 Units:  Metric    English   Both
« Previous Day
Next Day »
Diari Semanal Mensual Anual Personalitzat
  Maxima: Minima: Mijana:
Temperatura: -17.8 °C -9.7 °C -6.7 °C
Rosada: -17.8 °C -14.9 °C -13.6 °C
Humitat: Humidity % 25 % 46 %
Velocitat del vent: 0 km/h 0 km/h 38.8 km/h
Racha vent: 0 km/h - -
Vent:- - WNW
Pressio: 0 hPa 34510.1 hPa -
Pluja: 0 mm    
Historical Graphs
 
 
Tabular Data for Agost 11, 2017
Time Temperature Dew Point Pressure Wind Wind Speed Wind Gust Humidity Rainfall Rate (Hourly) solar Conditions
-17.8 °C -17.8 °C 0 hPa Calm     Humidity % 0 mm SolarRadiationWatts/m^2 W/m2 Conditions
00:03 -8 °C -12.5 °C 34659.1 hPa WNW 47.6 km/h 47.6 km/h 59 % 0 mm 0.0 W/m2 CLR
00:08 -8.1 °C -12.6 °C 34659.1 hPa WNW 47.6 km/h 47.6 km/h 59 % 0 mm 0.0 W/m2 CLR
00:13 -8.1 °C -12.6 °C 34659.1 hPa West 41.7 km/h 41.7 km/h 59 % 0 mm 0.0 W/m2 CLR
00:18 -8.2 °C -12.7 °C 34669.3 hPa West 53.6 km/h 53.6 km/h 59 % 0 mm 0.0 W/m2 CLR
00:23 -8.2 °C -12.7 °C 34669.3 hPa WNW 47.6 km/h 47.6 km/h 59 % 0 mm 0.0 W/m2 CLR
00:28 -8.2 °C -12.6 °C 34659.1 hPa WNW 50.7 km/h 50.7 km/h 60 % 0 mm 0.0 W/m2 CLR
00:33 -8.3 °C -12.6 °C 34659.1 hPa West 41.7 km/h 41.7 km/h 60 % 0 mm 0.0 W/m2 CLR
00:38 -8.3 °C -12.7 °C 34659.1 hPa WNW 38.8 km/h 38.8 km/h 60 % 0 mm 0.0 W/m2 CLR
00:43 -8.3 °C -12.8 °C 34659.1 hPa WNW 46.7 km/h 46.7 km/h 59 % 0 mm 0.0 W/m2 CLR
00:48 -8.3 °C -12.9 °C 34659.1 hPa West 38.8 km/h 38.8 km/h 58 % 0 mm 0.0 W/m2 CLR
00:53 -8.3 °C -12.9 °C 34659.1 hPa WNW 47.6 km/h 47.6 km/h 58 % 0 mm 0.0 W/m2 CLR
00:58 -8.3 °C -12.8 °C 34645.6 hPa West 32.8 km/h 32.8 km/h 59 % 0 mm 0.0 W/m2 CLR
01:03 -8.4 °C -12.8 °C 34659.1 hPa WNW 44.7 km/h 44.7 km/h 59 % 0 mm 0.0 W/m2 CLR
01:08 -8.4 °C -12.8 °C 34659.1 hPa West 44.1 km/h 44.1 km/h 59 % 0 mm 0.0 W/m2 CLR
01:13 -8.4 °C -12.9 °C 34659.1 hPa West 38.8 km/h 38.8 km/h 59 % 0 mm 0.0 W/m2 CLR
01:18 -8.4 °C -12.8 °C 34659.1 hPa WNW 28.5 km/h 28.5 km/h 60 % 0 mm 0.0 W/m2 CLR
01:23 -8.4 °C -12.8 °C 34659.1 hPa West 35.7 km/h 35.7 km/h 60 % 0 mm 0.0 W/m2 CLR
01:28 -8.5 °C -12.7 °C 34659.1 hPa WSW 44.1 km/h 44.1 km/h 61 % 0 mm 0.0 W/m2 CLR
01:33 -8.5 °C -12.7 °C 34659.1 hPa West 38.8 km/h 38.8 km/h 61 % 0 mm 0.0 W/m2 CLR
01:38 -8.6 °C -12.7 °C 34659.1 hPa WNW 36.2 km/h 36.2 km/h 61 % 0 mm 0.0 W/m2 CLR
01:44 -8.6 °C -12.8 °C 34659.1 hPa West 38.8 km/h 38.8 km/h 61 % 0 mm 0.0 W/m2 CLR
01:49 -8.7 °C -12.9 °C 34659.1 hPa West 47.6 km/h 47.6 km/h 61 % 0 mm 0.0 W/m2 CLR
01:54 -8.7 °C -12.8 °C 34659.1 hPa West 56.6 km/h 56.6 km/h 61 % 0 mm 0.0 W/m2 CLR
01:59 -8.7 °C -12.9 °C 34659.1 hPa West 53.6 km/h 53.6 km/h 61 % 0 mm 0.0 W/m2 CLR
02:04 -8.7 °C -12.9 °C 34659.1 hPa West 53.6 km/h 53.6 km/h 61 % 0 mm 0.0 W/m2 CLR
02:09 -8.7 °C -12.9 °C 34659.1 hPa SW 44.1 km/h 44.1 km/h 61 % 0 mm 0.0 W/m2 CLR
02:14 -8.8 °C -12.8 °C 34659.1 hPa WNW 50.7 km/h 50.7 km/h 62 % 0 mm 0.0 W/m2 CLR
02:19 -8.8 °C -12.8 °C 34645.6 hPa WSW 50.7 km/h 50.7 km/h 62 % 0 mm 0.0 W/m2 CLR
02:24 -8.8 °C -12.9 °C 34645.6 hPa WNW 41.7 km/h 41.7 km/h 62 % 0 mm 0.0 W/m2 CLR
02:29 -8.8 °C -12.9 °C 34645.6 hPa WNW 50.7 km/h 50.7 km/h 62 % 0 mm 0.0 W/m2 CLR
02:34 -8.9 °C -12.9 °C 34645.6 hPa WNW 50.7 km/h 50.7 km/h 62 % 0 mm 0.0 W/m2 CLR
02:39 -8.9 °C -12.9 °C 34645.6 hPa WNW 53.6 km/h 53.6 km/h 62 % 0 mm 0.0 W/m2 CLR
02:44 -8.9 °C -12.9 °C 34645.6 hPa WNW 44.7 km/h 44.7 km/h 62 % 0 mm 0.0 W/m2 CLR
02:49 -8.9 °C -13 °C 34645.6 hPa West 50.7 km/h 50.7 km/h 62 % 0 mm 0.0 W/m2 CLR
02:54 -8.9 °C -12.9 °C 34645.6 hPa West 38.8 km/h 38.8 km/h 62 % 0 mm 0.0 W/m2 CLR
02:59 -9 °C -13 °C 34645.6 hPa West 41.4 km/h 41.4 km/h 62 % 0 mm 0.0 W/m2 CLR
03:04 -9 °C -13.2 °C 34635.4 hPa West 44.7 km/h 44.7 km/h 61 % 0 mm 0.0 W/m2 CLR
03:09 -9 °C -13 °C 34635.4 hPa West 53.6 km/h 53.6 km/h 62 % 0 mm 0.0 W/m2 CLR
03:14 -9 °C -13.2 °C 34635.4 hPa West 41.7 km/h 41.7 km/h 61 % 0 mm 0.0 W/m2 CLR
03:19 -9 °C -13.2 °C 34645.6 hPa WSW 32.8 km/h 32.8 km/h 61 % 0 mm 0.0 W/m2 CLR
03:24 -9.1 °C -13.2 °C 34645.6 hPa West 38.8 km/h 38.8 km/h 61 % 0 mm 0.0 W/m2 CLR
03:29 -9.1 °C -13.2 °C 34635.4 hPa WNW 47.6 km/h 47.6 km/h 61 % 0 mm 0.0 W/m2 CLR
03:34 -9.1 °C -13.2 °C 34635.4 hPa West 46.7 km/h 46.7 km/h 61 % 0 mm 0.0 W/m2 CLR
03:39 -9.1 °C -13.3 °C 34635.4 hPa West 44.7 km/h 44.7 km/h 60 % 0 mm 0.0 W/m2 CLR
03:44 -9.1 °C -13.3 °C 34645.6 hPa WSW 53.6 km/h 53.6 km/h 60 % 0 mm 0.0 W/m2 CLR
03:49 -9 °C -13.4 °C 34645.6 hPa WNW 56.6 km/h 56.6 km/h 59 % 0 mm 0.0 W/m2 CLR
03:54 -9 °C -13.4 °C 34645.6 hPa West 56.6 km/h 56.6 km/h 59 % 0 mm 0.0 W/m2 CLR
03:59 -9 °C -13.4 °C 34645.6 hPa West 41.7 km/h 41.7 km/h 59 % 0 mm 0.0 W/m2 CLR
04:04 -9.1 °C -13.5 °C 34645.6 hPa West 35.7 km/h 35.7 km/h 59 % 0 mm 0.0 W/m2 CLR
04:09 -9.1 °C -13.6 °C 34645.6 hPa West 47.6 km/h 47.6 km/h 59 % 0 mm 0.0 W/m2 CLR
04:14 -9.1 °C -13.6 °C 34645.6 hPa West 53.6 km/h 53.6 km/h 59 % 0 mm 0.0 W/m2 CLR
04:19 -9.2 °C -13.6 °C 34645.6 hPa West 44.7 km/h 44.7 km/h 59 % 0 mm 0.0 W/m2 CLR
04:24 -9.1 °C -13.6 °C 34645.6 hPa West 38.8 km/h 38.8 km/h 59 % 0 mm 0.0 W/m2 CLR
04:29 -9.1 °C -13.6 °C 34645.6 hPa WNW 47.6 km/h 47.6 km/h 59 % 0 mm 0.0 W/m2 CLR
04:34 -9.1 °C -13.7 °C 34645.6 hPa WNW 56.6 km/h 56.6 km/h 58 % 0 mm 0.0 W/m2 CLR
04:39 -9.1 °C -13.7 °C 34645.6 hPa WSW 50.7 km/h 50.7 km/h 58 % 0 mm 0.0 W/m2 CLR
04:44 -9.2 °C -13.7 °C 34645.6 hPa West 47.6 km/h 47.6 km/h 58 % 0 mm 0.0 W/m2 CLR
04:49 -9.2 °C -13.8 °C 34635.4 hPa West 62.6 km/h 62.6 km/h 58 % 0 mm 0.0 W/m2 CLR
04:54 -9.2 °C -13.8 °C 34635.4 hPa West 50.7 km/h 50.7 km/h 58 % 0 mm 0.0 W/m2 CLR
04:59 -9.2 °C -13.8 °C 34625.2 hPa West 50.7 km/h 50.7 km/h 58 % 0 mm 0.0 W/m2 CLR
05:04 -9.2 °C -13.8 °C 34625.2 hPa WNW 53.6 km/h 53.6 km/h 58 % 0 mm 0.0 W/m2 CLR
05:09 -9.3 °C -13.8 °C 34625.2 hPa WNW 57 km/h 57 km/h 58 % 0 mm 0.0 W/m2 CLR
05:14 -9.3 °C -13.8 °C 34625.2 hPa WNW 59.5 km/h 59.5 km/h 58 % 0 mm 0.0 W/m2 CLR
05:19 -9.3 °C -13.8 °C 34611.7 hPa WNW 68.6 km/h 68.6 km/h 58 % 0 mm 0.0 W/m2 CLR
05:21 -9.3 °C -13.8 °C 34611.7 hPa West 68.6 km/h 68.6 km/h 58 % 0 mm 0.0 W/m2 CLR
05:26 -9.3 °C -13.8 °C 34625.2 hPa WSW 56.6 km/h 56.6 km/h 58 % 0 mm 0.0 W/m2 CLR
05:31 -9.3 °C -13.9 °C 34625.2 hPa WNW 38.8 km/h 38.8 km/h 58 % 0 mm 0.0 W/m2 CLR
05:36 -9.3 °C -13.9 °C 34625.2 hPa WNW 50.7 km/h 50.7 km/h 58 % 0 mm 0.0 W/m2 CLR
05:41 -9.4 °C -14.1 °C 34611.7 hPa WNW 50.7 km/h 50.7 km/h 57 % 0 mm 0.0 W/m2 CLR
05:46 -9.4 °C -14.1 °C 34611.7 hPa WNW 62.6 km/h 62.6 km/h 57 % 0 mm 0.0 W/m2 CLR
05:51 -9.3 °C -14.1 °C 34611.7 hPa WNW 59.5 km/h 59.5 km/h 57 % 0 mm 0.0 W/m2 CLR
05:56 -9.4 °C -14.1 °C 34611.7 hPa NW 59.5 km/h 59.5 km/h 57 % 0 mm 0.0 W/m2 CLR
06:01 -9.4 °C -14.1 °C 34611.7 hPa WNW 46.7 km/h 46.7 km/h 57 % 0 mm 0.0 W/m2 CLR
06:06 -9.4 °C -14.1 °C 34625.2 hPa West 44.7 km/h 44.7 km/h 57 % 0 mm 0.0 W/m2 CLR
06:11 -9.4 °C -14 °C 34611.7 hPa WNW 29.8 km/h 31.1 km/h 58 % 0 mm 0.0 W/m2 CLR
06:16 -9.4 °C -14 °C 34625.2 hPa West 20.9 km/h 20.9 km/h 58 % 0 mm 0.0 W/m2 CLR
06:21 -9.5 °C -14.1 °C 34625.2 hPa West 29.8 km/h 29.8 km/h 58 % 0 mm 0.0 W/m2 CLR
06:26 -9.5 °C -13.9 °C 34625.2 hPa WSW 29.8 km/h 29.8 km/h 59 % 0 mm 0.0 W/m2 CLR
06:27 -9.5 °C -13.9 °C 34625.2 hPa WSW 29.8 km/h 29.8 km/h 59 % 0 mm 0.0 W/m2 CLR
06:32 -9.6 °C -14 °C 34625.2 hPa SSW 20.9 km/h 20.9 km/h 59 % 0 mm 0.0 W/m2 CLR
06:37 -9.6 °C -13.8 °C 34625.2 hPa West 32.8 km/h 32.8 km/h 60 % 0 mm 0.0 W/m2 CLR
06:42 -9.6 °C -13.8 °C 34625.2 hPa WSW 29.8 km/h 29.8 km/h 60 % 0 mm 0.0 W/m2 CLR
06:47 -9.6 °C -13.9 °C 34625.2 hPa SW 9 km/h 9 km/h 60 % 0 mm 0.0 W/m2 CLR
06:52 -9.7 °C -13.8 °C 34625.2 hPa WSW 15 km/h 15 km/h 61 % 0 mm 0.0 W/m2 CLR
06:57 -9.7 °C -13.8 °C 34625.2 hPa West 29.8 km/h 29.8 km/h 61 % 0 mm 0.0 W/m2 CLR
07:02 -9.7 °C -13.7 °C 34625.2 hPa West 35.7 km/h 35.7 km/h 62 % 0 mm 0.0 W/m2 OVC
07:07 -9.7 °C -13.7 °C 34625.2 hPa West 23.3 km/h 23.3 km/h 62 % 0 mm 0.0 W/m2 OVC
07:12 -9.7 °C -13.7 °C 34635.4 hPa WSW 26.9 km/h 26.9 km/h 62 % 0 mm 5.0 W/m2 OVC
07:17 -9.7 °C -13.6 °C 34635.4 hPa WSW 17.9 km/h 17.9 km/h 63 % 0 mm 9.0 W/m2 BKN
07:22 -9.7 °C -13.6 °C 34635.4 hPa West 29.8 km/h 29.8 km/h 63 % 0 mm 11.0 W/m2 BKN
07:27 -9.7 °C -13.5 °C 34635.4 hPa WNW 35.7 km/h 35.7 km/h 63 % 0 mm 14.0 W/m2 BKN
07:32 -9.6 °C -13.5 °C 34635.4 hPa West 41.7 km/h 41.7 km/h 63 % 0 mm 14.0 W/m2 BKN
07:37 -9.7 °C -13.5 °C 34635.4 hPa NNW 33.6 km/h 33.6 km/h 63 % 0 mm 19.0 W/m2 BKN
07:42 -9.6 °C -13.5 °C 34635.4 hPa West 35.7 km/h 35.7 km/h 63 % 0 mm 21.0 W/m2 BKN
07:47 -9.6 °C -13.5 °C 34635.4 hPa WNW 35.7 km/h 35.7 km/h 63 % 0 mm 28.0 W/m2 BKN
07:52 -9.6 °C -13.5 °C 34645.6 hPa WSW 26.9 km/h 26.9 km/h 63 % 0 mm 39.0 W/m2 BKN
07:57 -9.6 °C -13.4 °C 34645.6 hPa SW 26.9 km/h 26.9 km/h 63 % 0 mm 62.0 W/m2 SCT
08:02 -9.5 °C -13.4 °C 34645.6 hPa West 20.9 km/h 20.9 km/h 63 % 0 mm 98.0 W/m2 CLR
08:07 -9.4 °C -13.4 °C 34635.4 hPa West 32.8 km/h 32.8 km/h 62 % 0 mm 125.0 W/m2 CLR
08:12 -9.3 °C -13.4 °C 34635.4 hPa WNW 26.9 km/h 26.9 km/h 62 % 0 mm 144.0 W/m2 CLR
08:17 -9.3 °C -13.3 °C 34645.6 hPa WSW 20.8 km/h 20.8 km/h 62 % 0 mm 155.0 W/m2 CLR
08:22 -9.2 °C -13.3 °C 34635.4 hPa West 44.7 km/h 44.7 km/h 61 % 0 mm 193.0 W/m2 CLR
08:27 -9.1 °C -13.3 °C 34645.6 hPa West 29.8 km/h 29.8 km/h 60 % 0 mm 227.0 W/m2 CLR
08:32 -9 °C -13.3 °C 34645.6 hPa NNW 35.7 km/h 35.7 km/h 60 % 0 mm 230.0 W/m2 CLR
08:37 -8.9 °C -13.2 °C 34645.6 hPa NW 32.8 km/h 32.8 km/h 60 % 0 mm 253.0 W/m2 CLR
08:42 -8.9 °C -13.4 °C 34645.6 hPa WNW 44.7 km/h 44.7 km/h 59 % 0 mm 83.0 W/m2 CLR
08:47 -9 °C -13.3 °C 34645.6 hPa NW 35.7 km/h 35.7 km/h 60 % 0 mm 102.0 W/m2 CLR
08:52 -9.1 °C -13.2 °C 34645.6 hPa West 29.8 km/h 29.8 km/h 61 % 0 mm 93.0 W/m2 CLR
08:57 -9 °C -13.2 °C 34645.6 hPa WNW 50.7 km/h 50.7 km/h 61 % 0 mm 281.0 W/m2 CLR
09:02 -8.8 °C -13.2 °C 34645.6 hPa NW 47.6 km/h 47.6 km/h 60 % 0 mm 318.0 W/m2 CLR
09:07 -8.7 °C -13.2 °C 34645.6 hPa NW 50.7 km/h 50.7 km/h 59 % 0 mm 295.0 W/m2 CLR
09:12 -8.7 °C -13.2 °C 34645.6 hPa WNW 53.6 km/h 53.6 km/h 59 % 0 mm 253.0 W/m2 CLR
09:17 -8.7 °C -13.2 °C 34645.6 hPa NW 47.6 km/h 47.6 km/h 59 % 0 mm 287.0 W/m2 CLR
09:22 -8.6 °C -13.1 °C 34645.6 hPa NW 38.8 km/h 38.8 km/h 59 % 0 mm 373.0 W/m2 CLR
09:27 -8.4 °C -13 °C 34659.1 hPa WNW 56.6 km/h 56.6 km/h 58 % 0 mm 439.0 W/m2 CLR
09:32 -8.3 °C -12.9 °C 34659.1 hPa WNW 50.7 km/h 50.7 km/h 58 % 0 mm 181.0 W/m2 CLR
09:37 -8.3 °C -13.1 °C 34659.1 hPa NW 62.6 km/h 62.6 km/h 57 % 0 mm 281.0 W/m2 CLR
09:42 -8.2 °C -13 °C 34645.6 hPa NW 49.2 km/h 49.2 km/h 57 % 0 mm 408.0 W/m2 CLR
09:47 -8.2 °C -13 °C 34645.6 hPa NNW 59.5 km/h 59.5 km/h 57 % 0 mm 311.0 W/m2 CLR
09:52 -8.3 °C -13.1 °C 34645.6 hPa NNW 57 km/h 57 km/h 57 % 0 mm 141.0 W/m2 CLR
09:57 -8.4 °C -13 °C 34645.6 hPa WNW 29.8 km/h 29.8 km/h 58 % 0 mm 367.0 W/m2 CLR
10:02 -8.2 °C -13.1 °C 34645.6 hPa NW 44.7 km/h 44.7 km/h 56 % 0 mm 510.0 W/m2 CLR
10:07 -8.2 °C -13.1 °C 34645.6 hPa NW 44.7 km/h 44.7 km/h 56 % 0 mm 260.0 W/m2 CLR
10:12 -8 °C -13.1 °C 34645.6 hPa NNW 50.7 km/h 50.7 km/h 55 % 0 mm 554.0 W/m2 CLR
10:17 -7.9 °C -12.8 °C 34635.4 hPa NNW 25.9 km/h 25.9 km/h 56 % 0 mm 587.0 W/m2 CLR
10:19 -7.8 °C -12.9 °C 34635.4 hPa NNW 44.1 km/h 44.1 km/h 55 % 0 mm 570.0 W/m2 CLR
10:24 -7.7 °C -13 °C 34635.4 hPa NW 50.7 km/h 50.7 km/h 54 % 0 mm 501.0 W/m2 CLR
10:29 -7.7 °C -13.1 °C 34635.4 hPa WNW 47.6 km/h 47.6 km/h 53 % 0 mm 659.0 W/m2 CLR
10:34 -7.6 °C -13.2 °C 34635.4 hPa WNW 56.6 km/h 56.6 km/h 52 % 0 mm 701.0 W/m2 CLR
10:39 -7.6 °C -13.2 °C 34635.4 hPa WNW 47.6 km/h 47.6 km/h 52 % 0 mm 185.0 W/m2 CLR
10:44 -7.9 °C -13.3 °C 34645.6 hPa WNW 38.8 km/h 38.8 km/h 53 % 0 mm 292.0 W/m2 CLR
10:49 -7.8 °C -13.1 °C 34645.6 hPa WNW 29.8 km/h 29.8 km/h 54 % 0 mm 496.0 W/m2 CLR
10:54 -7.5 °C -13.1 °C 34635.4 hPa WNW 44.7 km/h 44.7 km/h 52 % 0 mm 496.0 W/m2 CLR
10:59 -7.4 °C -13.1 °C 34635.4 hPa NW 57 km/h 57 km/h 51 % 0 mm 680.0 W/m2 CLR
11:04 -7.4 °C -12.9 °C 34635.4 hPa WNW 41.7 km/h 41.7 km/h 52 % 0 mm 682.0 W/m2 CLR
11:09 -7.1 °C -13.1 °C 34635.4 hPa WNW 50.7 km/h 50.7 km/h 50 % 0 mm 712.0 W/m2 CLR
11:14 -7.1 °C -13.1 °C 34635.4 hPa North 38.8 km/h 38.8 km/h 50 % 0 mm 684.0 W/m2 CLR
11:19 -7 °C -13.1 °C 34635.4 hPa NW 33.6 km/h 33.6 km/h 49 % 0 mm 698.0 W/m2 CLR
11:24 -6.9 °C -13.2 °C 34625.2 hPa NW 50.7 km/h 50.7 km/h 48 % 0 mm 515.0 W/m2 CLR
11:29 -6.9 °C -13 °C 34625.2 hPa WNW 50.7 km/h 50.7 km/h 49 % 0 mm 749.0 W/m2 CLR
11:34 -6.7 °C -12.9 °C 34625.2 hPa NW 38.8 km/h 38.8 km/h 48 % 0 mm 726.0 W/m2 CLR
11:39 -6.5 °C -12.9 °C 34625.2 hPa NW 33.6 km/h 33.6 km/h 47 % 0 mm 735.0 W/m2 CLR
11:44 -6.5 °C -13.2 °C 34611.7 hPa WNW 46.7 km/h 46.7 km/h 46 % 0 mm 751.0 W/m2 CLR
11:49 -6.5 °C -13.2 °C 34625.2 hPa NNW 53.6 km/h 53.6 km/h 46 % 0 mm 759.0 W/m2 CLR
11:54 -6.4 °C -13.3 °C 34625.2 hPa NNW 38.8 km/h 38.8 km/h 45 % 0 mm 770.0 W/m2 CLR
11:59 -6.4 °C -13.2 °C 34611.7 hPa North 53.6 km/h 53.6 km/h 45 % 0 mm 775.0 W/m2 CLR
12:04 -6.3 °C -13.2 °C 34611.7 hPa NW 35.7 km/h 35.7 km/h 45 % 0 mm 788.0 W/m2 CLR
12:09 -6.2 °C -13.2 °C 34611.7 hPa NNW 49.2 km/h 49.2 km/h 44 % 0 mm 795.0 W/m2 CLR
12:14 -6.2 °C -13.3 °C 34611.7 hPa West 23.8 km/h 23.8 km/h 44 % 0 mm 807.0 W/m2 CLR
12:19 -6.1 °C -13.2 °C 34601.5 hPa North 44.7 km/h 44.7 km/h 44 % 0 mm 814.0 W/m2 CLR
12:24 -6 °C -13.1 °C 34601.5 hPa WNW 31.1 km/h 31.1 km/h 44 % 0 mm 821.0 W/m2 CLR
12:29 -5.9 °C -13.2 °C 34611.7 hPa NW 53.6 km/h 53.6 km/h 43 % 0 mm 830.0 W/m2 CLR
12:34 -5.9 °C -13.2 °C 34611.7 hPa WNW 53.6 km/h 53.6 km/h 43 % 0 mm 838.0 W/m2 CLR
12:39 -6.1 °C -13.3 °C 34601.5 hPa NNW 44.7 km/h 44.7 km/h 43 % 0 mm 842.0 W/m2 CLR
12:44 -5.9 °C -13.4 °C 34611.7 hPa North 50.7 km/h 50.7 km/h 42 % 0 mm 849.0 W/m2 CLR
12:49 -5.9 °C -13.2 °C 34601.5 hPa NW 41.7 km/h 41.7 km/h 43 % 0 mm 856.0 W/m2 CLR
12:54 -5.8 °C -13.2 °C 34601.5 hPa NW 59.5 km/h 59.5 km/h 42 % 0 mm 863.0 W/m2 CLR
12:59 -5.8 °C -13.1 °C 34601.5 hPa West 41.4 km/h 41.4 km/h 43 % 0 mm 870.0 W/m2 CLR
13:04 -5.7 °C -13.2 °C 34601.5 hPa WNW 38.8 km/h 38.8 km/h 42 % 0 mm 877.0 W/m2 CLR
13:09 -5.6 °C -13.1 °C 34601.5 hPa NW 44.7 km/h 44.7 km/h 42 % 0 mm 888.0 W/m2 CLR
13:14 -5.5 °C -13 °C 34601.5 hPa NNW 35.7 km/h 35.7 km/h 42 % 0 mm 891.0 W/m2 CLR
13:19 -5.4 °C -13.1 °C 34601.5 hPa NW 41.7 km/h 41.7 km/h 41 % 0 mm 844.0 W/m2 CLR
13:24 -5.4 °C -13.1 °C 34601.5 hPa NW 38.8 km/h 38.8 km/h 41 % 0 mm 896.0 W/m2 CLR
13:34 -5.2 °C -12.9 °C 34591.4 hPa NNW 53.6 km/h 53.6 km/h 41 % 0 mm 882.0 W/m2 CLR
13:39 -5.1 °C -12.8 °C 34591.4 hPa NNW 32.8 km/h 32.8 km/h 41 % 0 mm 833.0 W/m2 CLR
13:44 -5.1 °C -13.1 °C 34591.4 hPa NW 47.6 km/h 47.6 km/h 40 % 0 mm 874.0 W/m2 CLR
13:49 -5.1 °C -13.1 °C 34577.8 hPa North 31.1 km/h 31.1 km/h 40 % 0 mm 875.0 W/m2 CLR
13:54 -4.8 °C -13 °C 34591.4 hPa NW 56.6 km/h 56.6 km/h 39 % 0 mm 907.0 W/m2 CLR
13:59 -5 °C -12.9 °C 34577.8 hPa North 33.6 km/h 33.6 km/h 40 % 0 mm 851.0 W/m2 CLR
14:04 -4.9 °C -13.2 °C 34577.8 hPa NNE 35.7 km/h 35.7 km/h 39 % 0 mm 911.0 W/m2 CLR
14:09 -4.6 °C -13.1 °C 34591.4 hPa North 44.7 km/h 44.7 km/h 38 % 0 mm 856.0 W/m2 CLR
14:14 -4.8 °C -13.4 °C 34577.8 hPa North 32.8 km/h 32.8 km/h 37 % 0 mm 940.0 W/m2 CLR
14:19 -4.8 °C -13.4 °C 34577.8 hPa North 50.7 km/h 50.7 km/h 37 % 0 mm 849.0 W/m2 CLR
14:24 -4.8 °C -13.4 °C 34577.8 hPa WNW 38.8 km/h 38.8 km/h 37 % 0 mm 803.0 W/m2 CLR
14:29 -4.7 °C -13.3 °C 34577.8 hPa NNW 49.2 km/h 49.2 km/h 37 % 0 mm 946.0 W/m2 CLR
14:34 -4.6 °C -13.5 °C 34577.8 hPa NNW 47.6 km/h 47.6 km/h 36 % 0 mm 907.0 W/m2 CLR
14:39 -4.6 °C -13.4 °C 34567.7 hPa West 50.7 km/h 50.7 km/h 36 % 0 mm 888.0 W/m2 CLR
14:44 -4.6 °C -13.4 °C 34577.8 hPa NNW 41.7 km/h 41.7 km/h 36 % 0 mm 932.0 W/m2 CLR
14:49 -4.6 °C -13.4 °C 34567.7 hPa NNW 35.7 km/h 35.7 km/h 36 % 0 mm 779.0 W/m2 CLR
14:54 -4.4 °C -13.3 °C 34567.7 hPa NW 44.7 km/h 44.7 km/h 36 % 0 mm 842.0 W/m2 CLR
14:59 -4.2 °C -13.4 °C 34567.7 hPa NNW 35.7 km/h 35.7 km/h 35 % 0 mm 858.0 W/m2 CLR
15:04 -4.3 °C -13.4 °C 34567.7 hPa NW 33.6 km/h 33.6 km/h 35 % 0 mm 911.0 W/m2 CLR
15:09 -4.2 °C -13.3 °C 34567.7 hPa NW 36.2 km/h 36.2 km/h 35 % 0 mm 802.0 W/m2 CLR
15:14 -4.1 °C -13.9 °C 34567.7 hPa NNW 56.6 km/h 56.6 km/h 32 % 0 mm 904.0 W/m2 CLR
15:19 -4.1 °C -13.4 °C 34567.7 hPa NNW 35.7 km/h 35.7 km/h 34 % 0 mm 842.0 W/m2 CLR
15:24 -4 °C -13.7 °C 34567.7 hPa North 29.8 km/h 29.8 km/h 33 % 0 mm 868.0 W/m2 CLR
15:29 -3.9 °C -13.8 °C 34554.1 hPa NW 36.2 km/h 36.2 km/h 32 % 0 mm 853.0 W/m2 CLR
15:34 -3.9 °C -13.8 °C 34554.1 hPa NNW 50.7 km/h 50.7 km/h 32 % 0 mm 847.0 W/m2 CLR
15:39 -3.9 °C -13.8 °C 34554.1 hPa NNW 59.5 km/h 59.5 km/h 32 % 0 mm 842.0 W/m2 CLR
15:44 -3.9 °C -13.8 °C 34554.1 hPa NW 32.8 km/h 32.8 km/h 32 % 0 mm 830.0 W/m2 CLR
15:49 -3.8 °C -14 °C 34554.1 hPa WNW 50.7 km/h 50.7 km/h 31 % 0 mm 824.0 W/m2 CLR
15:54 -3.8 °C -13.8 °C 34554.1 hPa NNE 5.1 km/h 5.1 km/h 32 % 0 mm 817.0 W/m2 CLR
15:59 -3.7 °C -13.8 °C 34554.1 hPa NW 47.6 km/h 47.6 km/h 31 % 0 mm 803.0 W/m2 CLR
16:04 -3.7 °C -13.6 °C 34544 hPa NW 38.8 km/h 38.8 km/h 32 % 0 mm 795.0 W/m2 CLR
16:09 -3.7 °C -13.4 °C 34544 hPa NNW 33.6 km/h 33.6 km/h 33 % 0 mm 780.0 W/m2 CLR
16:14 -3.7 °C -13.7 °C 34544 hPa NNW 38.8 km/h 38.8 km/h 32 % 0 mm 775.0 W/m2 CLR
16:19 -3.7 °C -13.4 °C 34544 hPa NNW 41.7 km/h 41.7 km/h 33 % 0 mm 763.0 W/m2 CLR
16:24 -3.6 °C -13.8 °C 34544 hPa WNW 53.6 km/h 53.6 km/h 31 % 0 mm 737.0 W/m2 CLR
16:29 -3.5 °C -13.7 °C 34544 hPa NW 50.7 km/h 50.7 km/h 31 % 0 mm 731.0 W/m2 CLR
16:39 -3.5 °C -13.7 °C 34533.8 hPa NW 41.7 km/h 41.7 km/h 31 % 0 mm 724.0 W/m2 CLR
16:44 -3.3 °C -14.1 °C 34533.8 hPa WNW 50.7 km/h 50.7 km/h 29 % 0 mm 714.0 W/m2 CLR
16:49 -3.3 °C -14.1 °C 34533.8 hPa NW 53.6 km/h 53.6 km/h 29 % 0 mm 701.0 W/m2 CLR
16:55 -3.3 °C -13.8 °C 34520.3 hPa WNW 38.8 km/h 38.8 km/h 30 % 0 mm 689.0 W/m2 CLR
17:00 -3.2 °C -14 °C 34533.8 hPa WNW 38.8 km/h 38.8 km/h 29 % 0 mm 677.0 W/m2 CLR
17:05 -3.3 °C -14.1 °C 34533.8 hPa WNW 29.8 km/h 29.8 km/h 29 % 0 mm 668.0 W/m2 CLR
17:10 -3.3 °C -13.8 °C 34533.8 hPa NW 20.9 km/h 20.9 km/h 30 % 0 mm 668.0 W/m2 CLR
17:11 -3.3 °C -13.8 °C 34533.8 hPa North 36.2 km/h 36.2 km/h 30 % 0 mm 610.0 W/m2 CLR
17:16 -3.2 °C -14.1 °C 34520.3 hPa WNW 59.5 km/h 59.5 km/h 29 % 0 mm 642.0 W/m2 CLR
17:21 -3.2 °C -14.3 °C 34520.3 hPa NW 47.6 km/h 47.6 km/h 28 % 0 mm 615.0 W/m2 CLR
17:25 -3.2 °C -14.3 °C 34520.3 hPa NNW 35.7 km/h 35.7 km/h 28 % 0 mm 613.0 W/m2 CLR
17:30 -3.1 °C -14.2 °C 34520.3 hPa WNW 38.8 km/h 38.8 km/h 28 % 0 mm 601.0 W/m2 CLR
17:35 -3.1 °C -14.4 °C 34520.3 hPa WNW 32.8 km/h 32.8 km/h 27 % 0 mm 585.0 W/m2 CLR
17:40 -2.9 °C -14.1 °C 34520.3 hPa NW 36.2 km/h 36.2 km/h 28 % 0 mm 577.0 W/m2 CLR
17:45 -2.8 °C -14.6 °C 34520.3 hPa WNW 46.7 km/h 46.7 km/h 26 % 0 mm 564.0 W/m2 CLR
17:50 -3 °C -14.7 °C 34520.3 hPa WSW 29.8 km/h 29.8 km/h 26 % 0 mm 543.0 W/m2 CLR
17:55 -3.1 °C -14.4 °C 34520.3 hPa West 50.7 km/h 50.7 km/h 27 % 0 mm 526.0 W/m2 CLR
18:00 -3.1 °C -14.4 °C 34520.3 hPa WNW 35.7 km/h 35.7 km/h 27 % 0 mm 512.0 W/m2 CLR
18:05 -3.1 °C -14.5 °C 34520.3 hPa NW 38.8 km/h 38.8 km/h 27 % 0 mm 501.0 W/m2 CLR
18:10 -2.9 °C -14.3 °C 34520.3 hPa NNW 47.6 km/h 47.6 km/h 27 % 0 mm 485.0 W/m2 CLR
18:15 -3 °C -14.4 °C 34510.1 hPa NW 41.4 km/h 41.4 km/h 27 % 0 mm 466.0 W/m2 CLR
18:20 -2.9 °C -14.7 °C 34520.3 hPa NNW 50.7 km/h 50.7 km/h 26 % 0 mm 448.0 W/m2 CLR
18:25 -2.9 °C -14.7 °C 34520.3 hPa WNW 29.8 km/h 29.8 km/h 26 % 0 mm 434.0 W/m2 CLR
18:30 -2.8 °C -14.6 °C 34510.1 hPa NNW 35.7 km/h 35.7 km/h 26 % 0 mm 417.0 W/m2 CLR
18:35 -2.9 °C -14.7 °C 34510.1 hPa NNW 38.8 km/h 38.8 km/h 26 % 0 mm 399.0 W/m2 CLR
18:40 -2.9 °C -14.7 °C 34510.1 hPa WNW 35.7 km/h 35.7 km/h 26 % 0 mm 385.0 W/m2 CLR
18:45 -2.9 °C -14.9 °C 34510.1 hPa WNW 26.9 km/h 26.9 km/h 25 % 0 mm 369.0 W/m2 CLR
18:50 -2.8 °C -14.8 °C 34510.1 hPa NNW 32.8 km/h 32.8 km/h 25 % 0 mm 355.0 W/m2 CLR
18:55 -2.9 °C -14.9 °C 34510.1 hPa NNE 29.8 km/h 29.8 km/h 25 % 0 mm 336.0 W/m2 CLR
19:00 -2.9 °C -14.7 °C 34510.1 hPa North 29.8 km/h 29.8 km/h 26 % 0 mm 322.0 W/m2 CLR
19:05 -3.1 °C -14.4 °C 34510.1 hPa North 29.8 km/h 29.8 km/h 27 % 0 mm 302.0 W/m2 CLR
19:10 -3.1 °C -14.4 °C 34510.1 hPa NNW 29.8 km/h 29.8 km/h 27 % 0 mm 287.0 W/m2 CLR
19:15 -3.1 °C -14.5 °C 34510.1 hPa NNW 44.1 km/h 44.1 km/h 27 % 0 mm 267.0 W/m2 CLR
19:20 -3.2 °C -14.3 °C 34510.1 hPa North 50.7 km/h 50.7 km/h 28 % 0 mm 255.0 W/m2 CLR
19:25 -3.2 °C -14.3 °C 34510.1 hPa NNW 41.7 km/h 41.7 km/h 28 % 0 mm 239.0 W/m2 CLR
19:30 -3.2 °C -14.3 °C 34510.1 hPa NNW 36.2 km/h 36.2 km/h 28 % 0 mm 223.0 W/m2 CLR
19:35 -3.3 °C -14.3 °C 34510.1 hPa North 41.7 km/h 41.7 km/h 28 % 0 mm 202.0 W/m2 CLR
19:40 -3.3 °C -14.4 °C 34510.1 hPa NW 23.8 km/h 23.8 km/h 28 % 0 mm 167.0 W/m2 CLR
19:45 -3.4 °C -14.5 °C 34520.3 hPa NNW 35.7 km/h 35.7 km/h 28 % 0 mm 125.0 W/m2 CLR
19:50 -3.6 °C -14.3 °C 34520.3 hPa NW 23.8 km/h 23.8 km/h 29 % 0 mm 148.0 W/m2 CLR
19:55 -3.6 °C -14.3 °C 34520.3 hPa NW 41.7 km/h 41.7 km/h 29 % 0 mm 113.0 W/m2 CLR
20:00 -3.7 °C -14.1 °C 34520.3 hPa NNW 50.7 km/h 50.7 km/h 30 % 0 mm 105.0 W/m2 CLR
20:05 -3.8 °C -13.9 °C 34520.3 hPa NW 31.1 km/h 31.1 km/h 31 % 0 mm 93.0 W/m2 FEW
20:10 -3.8 °C -14 °C 34520.3 hPa NNW 50.7 km/h 50.7 km/h 31 % 0 mm 81.0 W/m2 FEW
20:15 -3.9 °C -14.1 °C 34533.8 hPa NW 35.7 km/h 35.7 km/h 31 % 0 mm 69.0 W/m2 FEW
20:20 -4 °C -14.2 °C 34533.8 hPa North 32.8 km/h 32.8 km/h 31 % 0 mm 37.0 W/m2 BKN
20:25 -4.1 °C -14.3 °C 34533.8 hPa WNW 33.6 km/h 33.6 km/h 31 % 0 mm 28.0 W/m2 BKN
20:30 -4.2 °C -14.1 °C 34533.8 hPa NNW 29.8 km/h 29.8 km/h 32 % 0 mm 30.0 W/m2 BKN
20:35 -4.2 °C -14.1 °C 34533.8 hPa NW 35.7 km/h 35.7 km/h 32 % 0 mm 30.0 W/m2 BKN
20:40 -4.3 °C -14.2 °C 34533.8 hPa NNW 29.8 km/h 29.8 km/h 32 % 0 mm 25.0 W/m2 BKN
20:45 -4.4 °C -14 °C 34533.8 hPa NW 32.8 km/h 32.8 km/h 33 % 0 mm 21.0 W/m2 BKN
20:50 -4.5 °C -14.1 °C 34533.8 hPa NW 32.8 km/h 32.8 km/h 33 % 0 mm 16.0 W/m2 BKN
20:55 -4.6 °C -13.9 °C 34533.8 hPa North 25.9 km/h 25.9 km/h 34 % 0 mm 11.0 W/m2 BKN
21:01 -4.7 °C -14.1 °C 34533.8 hPa NW 26.9 km/h 26.9 km/h 34 % 0 mm 7.0 W/m2 BKN
21:06 -4.8 °C -14.1 °C 34533.8 hPa NNW 29.8 km/h 29.8 km/h 34 % 0 mm 0.0 W/m2 OVC
21:10 -4.9 °C -14.2 °C 34544 hPa NW 20.9 km/h 20.9 km/h 34 % 0 mm 5.0 W/m2 OVC
21:16 -4.9 °C -14.2 °C 34544 hPa NW 29.8 km/h 29.8 km/h 34 % 0 mm 0.0 W/m2 CLR
21:21 -5.1 °C -14.1 °C 34544 hPa NNW 25.9 km/h 25.9 km/h 35 % 0 mm 0.0 W/m2 CLR
21:26 -5.1 °C -14.2 °C 34544 hPa WNW 17.9 km/h 17.9 km/h 35 % 0 mm 0.0 W/m2 CLR
21:31 -5.2 °C -14.2 °C 34554.1 hPa WNW 26.9 km/h 26.9 km/h 35 % 0 mm 0.0 W/m2 CLR
21:36 -5.2 °C -14.3 °C 34554.1 hPa WNW 23.8 km/h 23.8 km/h 35 % 0 mm 0.0 W/m2 CLR
21:41 -5.3 °C -14.3 °C 34554.1 hPa NW 38.8 km/h 38.8 km/h 35 % 0 mm 0.0 W/m2 CLR
21:46 -5.3 °C -14.3 °C 34567.7 hPa NW 35.7 km/h 35.7 km/h 35 % 0 mm 0.0 W/m2 CLR
21:51 -5.4 °C -14.4 °C 34567.7 hPa WNW 29.8 km/h 29.8 km/h 35 % 0 mm 0.0 W/m2 CLR
21:56 -5.4 °C -14.2 °C 34567.7 hPa NW 32.8 km/h 32.8 km/h 36 % 0 mm 0.0 W/m2 CLR
22:01 -5.5 °C -14.3 °C 34577.8 hPa NW 18.2 km/h 18.2 km/h 36 % 0 mm 0.0 W/m2 CLR
22:06 -5.6 °C -14.3 °C 34577.8 hPa NW 20.9 km/h 20.9 km/h 36 % 0 mm 0.0 W/m2 CLR
22:11 -5.6 °C -14.4 °C 34577.8 hPa NW 29.8 km/h 29.8 km/h 36 % 0 mm 0.0 W/m2 CLR
22:16 -5.7 °C -14.2 °C 34577.8 hPa NW 29.8 km/h 29.8 km/h 37 % 0 mm 0.0 W/m2 CLR
22:21 -5.7 °C -14.2 °C 34577.8 hPa WNW 23.8 km/h 23.8 km/h 37 % 0 mm 0.0 W/m2 CLR
22:26 -5.8 °C -14.3 °C 34577.8 hPa West 20.9 km/h 20.9 km/h 37 % 0 mm 0.0 W/m2 CLR
22:31 -5.8 °C -14.1 °C 34577.8 hPa WSW 29.8 km/h 29.8 km/h 38 % 0 mm 0.0 W/m2 CLR
22:36 -5.8 °C -14.1 °C 34577.8 hPa WNW 26.9 km/h 26.9 km/h 38 % 0 mm 0.0 W/m2 CLR
22:41 -5.9 °C -14.2 °C 34577.8 hPa Calm     38 % 0 mm 0.0 W/m2 CLR
22:46 -5.9 °C -14 °C 34577.8 hPa Calm     39 % 0 mm 0.0 W/m2 CLR
22:51 -6 °C -14.1 °C 34577.8 hPa Calm     39 % 0 mm 0.0 W/m2 CLR
22:56 -6.1 °C -13.9 °C 34591.4 hPa West 17.9 km/h 17.9 km/h 40 % 0 mm 0.0 W/m2 CLR
23:01 -6.1 °C -13.9 °C 34591.4 hPa WSW 3.1 km/h 3.1 km/h 40 % 0 mm 0.0 W/m2 CLR
23:06 -6.1 °C -13.8 °C 34591.4 hPa WSW 9 km/h 9 km/h 41 % 0 mm 0.0 W/m2 CLR
23:11 -6.2 °C -13.8 °C 34591.4 hPa Calm     41 % 0 mm 0.0 W/m2 CLR
23:16 -6.2 °C -13.8 °C 34591.4 hPa WSW 9 km/h 9 km/h 41 % 0 mm 0.0 W/m2 CLR
23:21 -6.3 °C -13.8 °C 34591.4 hPa WSW 9 km/h 9 km/h 42 % 0 mm 0.0 W/m2 CLR
23:26 -6.4 °C -13.8 °C 34591.4 hPa Calm     42 % 0 mm 0.0 W/m2 CLR
23:31 -6.6 °C -13.8 °C 34591.4 hPa West 9 km/h 9 km/h 43 % 0 mm 0.0 W/m2 CLR
23:36 -6.5 °C -13.7 °C 34577.8 hPa West 17.9 km/h 17.9 km/h 43 % 0 mm 0.0 W/m2 CLR
23:41 -6.4 °C -13.7 °C 34577.8 hPa West 15 km/h 15 km/h 43 % 0 mm 0.0 W/m2 CLR
23:46 -6.5 °C -13.5 °C 34577.8 hPa West 20.9 km/h 20.9 km/h 44 % 0 mm 0.0 W/m2 CLR
23:51 -6.5 °C -13.5 °C 34591.4 hPa West 29.8 km/h 29.8 km/h 44 % 0 mm 0.0 W/m2 CLR
23:56 -6.5 °C -13.5 °C 34577.8 hPa Calm     44 % 0 mm 0.0 W/m2 CLR
Lo Temps de Massalio
Compliments of Weather Underground - 1.25 mb